This is the latest recevied weather packets stored in our database for station/object HB9MIR-13. If no packets are shown the sender has not sent any weather packets the latest 10 day(s).
| Time | Temp. | Humidity | Pressure | Rain* | Wind** | Luminosity | Snow |
|---|---|---|---|---|---|---|---|
| 1777738673 | 26.11° C | 33% | 1014.1 hPa | 0 mm | - | 149 W/m² | - |
| 1777737985 | 25.56° C | 33% | 1014.3 hPa | 0 mm | - | 140 W/m² | - |
| 1777737249 | 26.11° C | 31% | 1014.7 hPa | 0 mm | - | 316 W/m² | - |
| 1777735798 | 26.11° C | 32% | 1015 hPa | 0 mm | - | 388 W/m² | - |
| 1777735061 | 26.11° C | 36% | 1015.1 hPa | 0 mm | - | 420 W/m² | - |
| 1777734360 | 26.11° C | 33% | 1015.1 hPa | 0 mm | - | 480 W/m² | - |
| 1777733673 | 26.11° C | 33% | 1015.4 hPa | 0 mm | - | 510 W/m² | - |
| 1777732985 | 26.11° C | 34% | 1015.6 hPa | 0 mm | - | 499 W/m² | - |
| 1777732297 | 25.56° C | 34% | 1015.9 hPa | 0 mm | - | 574 W/m² | - |
| 1777731610 | 26.67° C | 35% | 1016.1 hPa | 0 mm | - | 527 W/m² | - |
| 1777730922 | 25.56° C | 37% | 1016.3 hPa | 0 mm | - | 647 W/m² | - |
| 1777730247 | 26.11° C | 34% | 1016.5 hPa | 0 mm | - | 605 W/m² | - |
| 1777729546 | 26.67° C | 35% | 1016.7 hPa | 0 mm | - | 632 W/m² | - |
| 1777728858 | 26.11° C | 33% | 1016.9 hPa | 0 mm | - | 676 W/m² | - |
| 1777728170 | 25.56° C | 34% | 1017 hPa | 0 mm | - | 702 W/m² | - |
| 1777727481 | 26.67° C | 35% | 1017.5 hPa | 0 mm | - | 734 W/m² | - |
| 1777726794 | 26.67° C | 35% | 1017.8 hPa | 0 mm | - | 738 W/m² | - |
| 1777726105 | 25.56° C | 36% | 1017.5 hPa | 0 mm | - | 777 W/m² | - |
| 1777725430 | 25.56° C | 36% | 1017.7 hPa | 0 mm | - | 784 W/m² | - |
| 1777724728 | 25.56° C | 36% | 1018.1 hPa | 0 mm | - | 765 W/m² | - |
| 1777724041 | 25° C | 36% | 1017.8 hPa | 0 mm | - | 785 W/m² | - |
| 1777723354 | 26.11° C | 37% | 1018.3 hPa | 0 mm | - | 703 W/m² | - |
| 1777722666 | 25.56° C | 34% | 1018.5 hPa | 0 mm | - | 787 W/m² | - |
| 1777721229 | 25° C | 37% | 1018.8 hPa | 0 mm | - | 798 W/m² | - |
| 1777720540 | 25° C | 41% | 1019.2 hPa | 0 mm | - | 832 W/m² | - |
* Rain latest hour (hover to see other rain measurements)
** Current wind speed in m/s (hover to see current wind gust speed)